Startpagina
METAR-TAF:

METAR-TAF

Vliegvelden :

Big Piney / Marbleton, Wyoming, Verenigde Staten

breedte: 42-34-44N, lengte: 110-06-11W, hoogte: 2126 m

Actueel weer

Dit bericht is 50 minuten geleden gemaakt, om 15:53 UTC
Weinig wind
Temperatuur -16°C
Vochtigheid 84%
Druk 1023 hPa
Zicht: 16.1 km
Onbewolkt

METAR: KBPI 111553Z AUTO 00000KT 10SM CLR M16/M18 A3020 RMK AO2 SLP301 T11611183

Tijdstip: 09:43 (16:43 UTC)

Verwachting

Dit bericht is 5 uur en het 16 minuten geleden gemaakt, om 11:27 UTC
Verwachting geldig van 11 om 12 UTC tot 12 om 12 UTC
Wind 7 kt uit het noordnoordwesten
Zicht: 10 km
Verspreide wolken op 6000 ft
Van 12 om 0100 UTC
Wind 5 kt uit variabele richting
Zicht: 10 km
Gebroken wolken op 8000 ft
Van 12 om 1100 UTC
Wind 5 kt uit variabele richting
Zicht: 10 km
Gebroken wolken op 4000 ft
buien in de omgeving

TAF: KBPI 111127Z 1112/1212 33007KT P6SM SCT060 FM120100 VRB05KT P6SM BKN080 FM121100 VRB05KT P6SM VCSH BKN040

Waarnemingen en weersverwachtingen van meer dan 4000 vliegvelden (METAR en TAF).

De beschikbare stations zijn de gele en rode punten op de kaart.

Ga met uw muis naar het station om de naam te zien.

Klik dan om waarnemingen en weersverwachtingen te zien.

kaart wijzigen: klik op de groene knoppen met een zwart kruis om in te zoomen, op de groene knop met een streepje om uit te zoomen of op de groene pijlen voor aangrenzende kaarten.


METAR-TAF: